createdAt,value
2022-10-30T00:00:14.960Z,4.78
2022-10-30T00:02:42.623Z,5.72
2022-10-30T00:05:10.518Z,5.78
2022-10-30T00:07:38.133Z,5.53
2022-10-30T00:10:08.235Z,6.20
2022-10-30T00:12:35.857Z,5.28
2022-10-30T00:15:03.599Z,5.22
2022-10-30T00:17:31.216Z,5.43
2022-10-30T00:19:58.882Z,5.22
2022-10-30T00:22:26.762Z,5.60
2022-10-30T00:24:54.350Z,4.80
2022-10-30T00:27:23.270Z,4.80
2022-10-30T00:29:51.010Z,5.38
2022-10-30T00:32:18.554Z,5.22
2022-10-30T00:34:46.080Z,5.72
2022-10-30T00:37:13.674Z,4.97
2022-10-30T00:39:41.278Z,5.10
2022-10-30T00:42:13.195Z,5.38
2022-10-30T00:44:47.997Z,4.85
2022-10-30T00:47:20.819Z,4.47
2022-10-30T00:49:54.655Z,5.20
2022-10-30T00:52:25.726Z,4.63
2022-10-30T00:54:54.749Z,5.47
2022-10-30T00:57:22.506Z,5.40
2022-10-30T00:59:51.720Z,5.55
2022-10-30T01:02:21.930Z,5.38
2022-10-30T01:04:51.903Z,4.55
2022-10-30T01:07:19.451Z,5.30
2022-10-30T01:09:48.381Z,5.78
2022-10-30T01:12:16.664Z,5.03
2022-10-30T01:14:47.330Z,4.80
2022-10-30T01:17:31.224Z,4.90
2022-10-30T01:20:12.079Z,5.27
2022-10-30T01:22:52.776Z,5.22
2022-10-30T01:25:37.562Z,5.32
2022-10-30T01:28:18.599Z,5.03
2022-10-30T01:30:58.745Z,4.60
2022-10-30T01:33:29.639Z,4.90
2022-10-30T01:36:06.207Z,4.40
2022-10-30T01:38:40.482Z,4.70
2022-10-30T01:41:08.867Z,4.88
2022-10-30T01:43:38.411Z,4.50
2022-10-30T01:46:32.711Z,4.28
2022-10-30T01:49:14.969Z,4.57
2022-10-30T01:51:55.839Z,4.70
2022-10-30T01:54:33.728Z,3.58
2022-10-30T01:57:12.118Z,4.30
2022-10-30T01:59:47.037Z,4.43
2022-10-30T02:02:15.316Z,4.70
2022-10-30T02:04:43.798Z,4.88
2022-10-30T02:07:13.444Z,4.50
2022-10-30T02:09:52.097Z,4.40
2022-10-30T02:12:20.215Z,4.75
2022-10-30T02:14:51.316Z,4.70
2022-10-30T02:17:19.850Z,4.43
2022-10-30T02:19:50.674Z,4.57
2022-10-30T02:22:19.814Z,4.35
2022-10-30T02:24:47.923Z,4.60
2022-10-30T02:27:15.710Z,4.88
2022-10-30T02:29:43.311Z,4.80
2022-10-30T02:32:11.280Z,4.50
2022-10-30T02:34:38.806Z,4.75
2022-10-30T02:37:06.343Z,4.93
2022-10-30T02:39:35.244Z,5.25
2022-10-30T02:42:05.682Z,5.50
2022-10-30T02:44:33.274Z,5.72
2022-10-30T02:47:00.994Z,5.20
2022-10-30T02:49:28.799Z,4.90
2022-10-30T02:51:56.335Z,4.40
2022-10-30T02:54:24.417Z,4.95
2022-10-30T02:56:53.895Z,4.28
2022-10-30T02:59:22.528Z,4.28
2022-10-30T03:01:51.479Z,4.40
2022-10-30T03:04:19.203Z,4.13
2022-10-30T03:06:46.745Z,4.07
2022-10-30T03:09:14.354Z,4.47
2022-10-30T03:11:44.259Z,4.00
2022-10-30T03:14:13.258Z,4.35
2022-10-30T03:16:40.887Z,4.00
2022-10-30T03:19:08.422Z,4.97
2022-10-30T03:21:35.998Z,5.22
2022-10-30T03:24:03.537Z,4.03
2022-10-30T03:26:31.059Z,4.10
2022-10-30T03:29:05.268Z,3.97
2022-10-30T03:31:34.976Z,3.92
2022-10-30T03:34:13.994Z,3.60
2022-10-30T03:36:42.650Z,4.13
2022-10-30T03:39:10.371Z,3.53
2022-10-30T03:41:38.794Z,3.65
2022-10-30T03:44:06.392Z,3.80
2022-10-30T03:46:35.781Z,3.75
2022-10-30T03:49:16.953Z,3.60
2022-10-30T03:51:44.509Z,3.67
2022-10-30T03:54:12.107Z,3.60
2022-10-30T03:56:39.759Z,3.45
2022-10-30T03:59:10.292Z,3.13
2022-10-30T04:01:41.601Z,3.92
2022-10-30T04:04:09.639Z,3.50
2022-10-30T04:06:37.274Z,3.22
2022-10-30T04:09:05.477Z,3.22
2022-10-30T04:11:38.009Z,2.87
2022-10-30T04:14:05.729Z,3.50
2022-10-30T04:16:33.777Z,2.97
2022-10-30T04:19:03.846Z,3.47
2022-10-30T04:21:31.425Z,3.55
2022-10-30T04:23:58.962Z,3.70
2022-10-30T04:26:29.619Z,3.33
2022-10-30T04:28:57.726Z,3.58
2022-10-30T04:31:25.451Z,3.20
2022-10-30T04:33:53.106Z,3.45
2022-10-30T04:36:29.859Z,3.17
2022-10-30T04:38:57.756Z,3.25
2022-10-30T04:41:29.104Z,3.00
2022-10-30T04:44:03.373Z,3.00
2022-10-30T04:46:33.000Z,3.45
2022-10-30T04:49:08.073Z,3.20
2022-10-30T04:51:37.301Z,2.67
2022-10-30T04:54:06.748Z,3.67
2022-10-30T04:56:35.700Z,3.47
2022-10-30T04:59:04.530Z,3.33
2022-10-30T05:01:32.200Z,3.17
2022-10-30T05:04:00.052Z,2.95
2022-10-30T05:06:31.053Z,2.83
2022-10-30T05:09:00.221Z,3.03
2022-10-30T05:11:35.428Z,2.78
2022-10-30T05:14:03.163Z,3.70
2022-10-30T05:16:30.711Z,3.10
2022-10-30T05:19:00.379Z,2.55
2022-10-30T05:21:28.926Z,2.65
2022-10-30T05:23:56.475Z,3.25
2022-10-30T05:26:26.458Z,2.95
2022-10-30T05:28:54.444Z,3.03
2022-10-30T05:31:22.033Z,2.90
2022-10-30T05:34:18.358Z,3.10
2022-10-30T05:36:48.921Z,2.78
2022-10-30T05:39:17.333Z,3.10
2022-10-30T05:41:49.659Z,3.10
2022-10-30T05:44:34.182Z,4.50
2022-10-30T05:47:07.097Z,4.10
2022-10-30T05:49:36.166Z,4.80
2022-10-30T05:52:07.127Z,4.05
2022-10-30T05:54:34.688Z,3.28
2022-10-30T05:57:30.760Z,3.05
2022-10-30T05:59:58.315Z,3.13
2022-10-30T06:02:26.265Z,3.63
2022-10-30T06:04:53.912Z,2.97
2022-10-30T06:07:22.101Z,2.90
2022-10-30T06:09:49.717Z,3.50
2022-10-30T06:12:36.954Z,3.50
2022-10-30T06:15:13.270Z,2.90
2022-10-30T06:17:40.832Z,2.80
2022-10-30T06:20:26.044Z,3.55
2022-10-30T06:23:19.281Z,3.35
2022-10-30T06:25:54.102Z,2.72
2022-10-30T06:28:43.286Z,4.30
2022-10-30T06:31:12.884Z,3.33
2022-10-30T06:33:40.586Z,3.20
2022-10-30T06:36:08.852Z,2.55
2022-10-30T06:38:37.697Z,2.70
2022-10-30T06:41:05.490Z,2.90
2022-10-30T06:43:53.088Z,3.08
2022-10-30T06:46:26.997Z,2.50
2022-10-30T06:48:58.558Z,2.13
2022-10-30T06:51:27.190Z,2.72
2022-10-30T06:53:55.502Z,2.63
2022-10-30T06:56:41.035Z,2.80
2022-10-30T06:59:38.075Z,3.17
2022-10-30T07:02:25.157Z,3.00
2022-10-30T07:04:57.330Z,3.17
2022-10-30T07:07:25.029Z,2.80
2022-10-30T07:09:52.968Z,2.90
2022-10-30T07:15:13.327Z,2.63
2022-10-30T07:17:55.013Z,3.80
2022-10-30T07:20:24.741Z,3.25
2022-10-30T07:22:52.875Z,4.57
2022-10-30T07:25:20.854Z,3.70
2022-10-30T07:27:58.161Z,3.40
2022-10-30T07:30:35.020Z,3.65
2022-10-30T07:33:37.960Z,3.65
2022-10-30T07:36:16.273Z,3.70
2022-10-30T07:38:52.166Z,3.60
2022-10-30T07:41:30.959Z,3.55
2022-10-30T07:44:33.788Z,4.07
2022-10-30T07:47:16.127Z,3.58
2022-10-30T07:49:55.521Z,4.18
2022-10-30T07:52:23.126Z,5.55
2022-10-30T07:54:52.749Z,5.22
2022-10-30T07:57:39.414Z,5.15
2022-10-30T08:00:36.223Z,4.78
2022-10-30T08:03:18.543Z,4.50
2022-10-30T08:06:05.988Z,5.75
2022-10-30T08:08:40.353Z,4.68
2022-10-30T08:11:22.705Z,4.03
2022-10-30T08:13:50.400Z,3.92
2022-10-30T08:16:18.845Z,3.42
2022-10-30T08:18:47.748Z,5.63
2022-10-30T08:21:15.320Z,4.50
2022-10-30T08:23:54.630Z,4.03
2022-10-30T08:26:23.019Z,3.83
2022-10-30T08:28:50.703Z,4.57
2022-10-30T08:31:18.427Z,3.70
2022-10-30T08:34:15.998Z,3.95
2022-10-30T08:36:55.275Z,3.13
2022-10-30T08:39:23.611Z,3.65
2022-10-30T08:42:00.918Z,3.28
2022-10-30T08:44:34.925Z,3.55
2022-10-30T08:47:20.956Z,2.88
2022-10-30T08:49:49.948Z,3.17
2022-10-30T08:52:21.369Z,3.67
2022-10-30T08:54:55.251Z,3.15
2022-10-30T08:57:25.221Z,3.10
2022-10-30T08:59:56.343Z,3.05
2022-10-30T09:02:45.316Z,2.50
2022-10-30T09:05:46.723Z,2.78
2022-10-30T09:08:32.858Z,2.47
2022-10-30T09:11:12.961Z,2.60
2022-10-30T09:13:41.016Z,3.15
2022-10-30T09:16:09.382Z,2.50
2022-10-30T09:18:39.109Z,3.20
2022-10-30T09:21:08.080Z,2.80
2022-10-30T09:23:43.756Z,4.85
2022-10-30T09:26:30.383Z,3.75
2022-10-30T09:29:20.807Z,3.53
2022-10-30T09:31:57.093Z,2.95
2022-10-30T09:37:01.987Z,3.20
2022-10-30T09:39:31.978Z,2.53
2022-10-30T09:42:19.857Z,4.80
2022-10-30T09:48:24.725Z,3.03
2022-10-30T09:51:10.676Z,2.60
2022-10-30T09:53:50.864Z,2.70
2022-10-30T09:56:32.780Z,3.30
2022-10-30T09:59:10.992Z,3.20
2022-10-30T10:01:48.893Z,4.18
2022-10-30T10:04:26.745Z,3.88
2022-10-30T10:07:20.813Z,3.55
2022-10-30T10:10:11.835Z,13.25
2022-10-30T10:12:52.471Z,5.45
2022-10-30T10:15:35.504Z,3.50
2022-10-30T10:18:06.058Z,2.42
2022-10-30T10:20:37.980Z,2.67
2022-10-30T10:23:17.065Z,2.67
2022-10-30T10:25:53.359Z,2.72
2022-10-30T10:28:43.426Z,3.00
2022-10-30T10:31:25.395Z,4.63
2022-10-30T10:34:09.905Z,4.35
2022-10-30T10:36:47.035Z,3.28
2022-10-30T10:39:29.026Z,3.00
2022-10-30T10:42:09.954Z,3.28
2022-10-30T10:44:48.637Z,3.40
2022-10-30T10:47:41.579Z,4.00
2022-10-30T10:50:20.704Z,3.07
2022-10-30T10:52:53.884Z,3.13
2022-10-30T10:55:25.819Z,2.92
2022-10-30T10:57:59.539Z,3.28
2022-10-30T11:00:30.287Z,2.45
2022-10-30T11:03:04.711Z,2.80
2022-10-30T11:05:36.139Z,2.60
2022-10-30T11:08:13.097Z,2.67
2022-10-30T11:10:40.766Z,4.43
2022-10-30T11:13:12.512Z,2.50
2022-10-30T11:15:51.271Z,2.13
2022-10-30T11:18:18.853Z,2.80
2022-10-30T11:20:57.951Z,2.25
2022-10-30T11:23:33.406Z,2.30
2022-10-30T11:26:02.230Z,2.30
2022-10-30T11:28:37.445Z,2.70
2022-10-30T11:31:19.514Z,1.83
2022-10-30T11:33:47.140Z,2.70
2022-10-30T11:36:16.979Z,2.42
2022-10-30T11:38:44.616Z,2.13
2022-10-30T11:41:13.221Z,2.67
2022-10-30T11:43:43.931Z,2.30
2022-10-30T11:46:22.560Z,2.28
2022-10-30T11:48:54.770Z,2.00
2022-10-30T11:51:35.604Z,5.57
2022-10-30T11:54:04.393Z,2.30
2022-10-30T11:56:33.063Z,3.00
2022-10-30T11:59:04.360Z,2.22
2022-10-30T12:01:35.507Z,2.75
2022-10-30T12:04:23.196Z,2.17
2022-10-30T12:06:54.990Z,2.33
2022-10-30T12:09:23.672Z,2.10
2022-10-30T12:11:51.446Z,2.05
2022-10-30T12:14:23.023Z,1.48
2022-10-30T12:16:52.978Z,1.70
2022-10-30T12:19:23.234Z,1.60
2022-10-30T12:21:53.454Z,1.90
2022-10-30T12:24:31.683Z,2.10
2022-10-30T12:27:03.706Z,2.42
2022-10-30T12:32:39.945Z,2.10
2022-10-30T12:35:19.447Z,2.13
2022-10-30T12:37:50.236Z,2.17
2022-10-30T12:40:22.289Z,3.25
2022-10-30T12:42:55.153Z,3.47
2022-10-30T12:45:31.641Z,3.22
2022-10-30T12:48:04.633Z,2.38
2022-10-30T12:50:40.438Z,4.40
2022-10-30T12:53:16.679Z,3.10
2022-10-30T12:55:49.654Z,2.78
2022-10-30T12:58:26.304Z,3.15
2022-10-30T13:00:59.606Z,3.20
2022-10-30T13:03:31.093Z,3.83
2022-10-30T13:06:03.300Z,3.47
2022-10-30T13:08:35.483Z,2.50
2022-10-30T13:11:08.184Z,2.20
2022-10-30T13:13:39.867Z,2.38
2022-10-30T13:16:15.131Z,2.63
2022-10-30T13:18:42.736Z,2.50
2022-10-30T13:21:23.455Z,2.90
2022-10-30T13:23:55.781Z,2.38
2022-10-30T13:26:45.064Z,2.17
2022-10-30T13:29:23.522Z,2.97
2022-10-30T13:32:02.643Z,3.08
2022-10-30T13:34:40.972Z,2.90
2022-10-30T13:37:13.817Z,2.22
2022-10-30T13:39:47.001Z,2.10
2022-10-30T13:42:37.782Z,2.63
2022-10-30T13:45:25.886Z,2.30
2022-10-30T13:48:05.327Z,2.95
2022-10-30T13:50:48.565Z,2.42
2022-10-30T13:53:20.613Z,2.60
2022-10-30T13:55:49.928Z,2.40
2022-10-30T13:58:24.155Z,2.53
2022-10-30T14:01:00.969Z,4.75
2022-10-30T14:03:43.625Z,3.58
2022-10-30T14:06:16.493Z,4.15
2022-10-30T14:08:53.654Z,2.95
2022-10-30T14:11:21.462Z,3.50
2022-10-30T14:13:56.110Z,3.00
2022-10-30T14:16:41.201Z,3.08
2022-10-30T14:19:10.975Z,2.92
2022-10-30T14:21:54.929Z,3.25
2022-10-30T14:27:11.696Z,2.50
2022-10-30T14:29:45.386Z,2.90
2022-10-30T14:32:39.123Z,2.40
2022-10-30T14:35:36.083Z,2.53
2022-10-30T14:38:27.708Z,3.22
2022-10-30T14:41:20.418Z,2.60
2022-10-30T14:44:07.477Z,2.67
2022-10-30T14:46:43.161Z,2.92
2022-10-30T14:49:29.420Z,2.95
2022-10-30T14:52:12.587Z,2.92
2022-10-30T14:54:46.225Z,3.28
2022-10-30T14:57:22.178Z,2.88
2022-10-30T14:59:49.933Z,3.47
2022-10-30T15:02:31.359Z,2.17
2022-10-30T15:05:35.142Z,3.20
2022-10-30T15:08:15.397Z,2.75
2022-10-30T15:10:52.495Z,2.15
2022-10-30T15:13:22.344Z,2.40
2022-10-30T15:15:59.115Z,2.90
2022-10-30T15:18:30.555Z,2.75
2022-10-30T15:21:05.055Z,3.30
2022-10-30T15:23:36.635Z,2.63
2022-10-30T15:26:09.972Z,2.30
2022-10-30T15:28:39.691Z,3.47
2022-10-30T15:31:08.946Z,2.55
2022-10-30T15:33:37.623Z,2.78
2022-10-30T15:36:05.869Z,2.75
2022-10-30T15:38:34.774Z,2.55
2022-10-30T15:41:03.927Z,2.20
2022-10-30T15:43:34.912Z,2.55
2022-10-30T15:46:09.452Z,4.15
2022-10-30T15:48:40.224Z,3.33
2022-10-30T15:51:09.359Z,3.45
2022-10-30T15:53:44.614Z,2.78
2022-10-30T15:56:20.111Z,2.92
2022-10-30T15:58:50.908Z,2.40
2022-10-30T16:01:26.338Z,2.85
2022-10-30T16:03:55.039Z,3.22
2022-10-30T16:06:27.026Z,3.63
2022-10-30T16:08:56.434Z,4.88
2022-10-30T16:11:25.355Z,2.80
2022-10-30T16:13:53.521Z,3.00
2022-10-30T16:16:25.743Z,2.50
2022-10-30T16:18:54.252Z,2.70
2022-10-30T16:21:24.531Z,3.00
2022-10-30T16:23:54.041Z,2.42
2022-10-30T16:26:32.714Z,3.55
2022-10-30T16:29:03.791Z,4.20
2022-10-30T16:31:35.456Z,4.00
2022-10-30T16:34:04.471Z,4.30
2022-10-30T16:36:32.614Z,2.83
2022-10-30T16:39:00.522Z,2.90
2022-10-30T16:41:32.164Z,2.80
2022-10-30T16:44:15.246Z,2.97
2022-10-30T16:46:49.202Z,4.28
2022-10-30T16:49:19.895Z,3.00
2022-10-30T16:51:48.683Z,2.80
2022-10-30T16:54:20.785Z,2.50
2022-10-30T16:56:53.796Z,2.70
2022-10-30T16:59:28.231Z,3.03
2022-10-30T17:02:00.677Z,2.88
2022-10-30T17:04:30.312Z,3.33
2022-10-30T17:07:06.737Z,3.67
2022-10-30T17:09:38.442Z,3.10
2022-10-30T17:12:13.764Z,2.60
2022-10-30T17:14:48.838Z,4.40
2022-10-30T17:17:32.135Z,2.58
2022-10-30T17:22:44.771Z,3.80
2022-10-30T17:25:18.636Z,3.65
2022-10-30T17:27:51.386Z,4.07
2022-10-30T17:30:37.855Z,4.65
2022-10-30T17:33:24.671Z,4.43
2022-10-30T17:38:25.090Z,3.50
2022-10-30T17:40:52.757Z,3.53
2022-10-30T17:43:23.930Z,4.35
2022-10-30T17:45:51.476Z,3.92
2022-10-30T17:48:19.336Z,4.15
2022-10-30T17:50:46.915Z,4.32
2022-10-30T17:53:18.333Z,4.95
2022-10-30T17:55:51.641Z,4.20
2022-10-30T17:58:23.279Z,3.95
2022-10-30T18:00:50.904Z,3.30
2022-10-30T18:03:18.536Z,3.65
2022-10-30T18:05:47.160Z,4.65
2022-10-30T18:08:14.748Z,4.97
2022-10-30T18:10:42.251Z,4.68
2022-10-30T18:13:10.879Z,4.90
2022-10-30T18:15:43.598Z,4.65
2022-10-30T18:18:11.136Z,5.25
2022-10-30T18:20:38.740Z,4.25
2022-10-30T18:23:31.634Z,5.18
2022-10-30T18:26:00.522Z,4.78
2022-10-30T18:28:28.095Z,4.60
2022-10-30T18:30:59.389Z,5.32
2022-10-30T18:33:26.932Z,5.93
2022-10-30T18:35:54.973Z,6.47
2022-10-30T18:38:22.508Z,6.07
2022-10-30T18:40:50.718Z,4.82
2022-10-30T18:43:18.557Z,4.65
2022-10-30T18:45:46.104Z,4.93
2022-10-30T18:48:14.994Z,4.93
2022-10-30T18:50:42.974Z,4.63
2022-10-30T18:53:16.806Z,4.60
2022-10-30T18:55:45.296Z,7.13
2022-10-30T18:58:13.073Z,7.80
2022-10-30T19:01:06.329Z,5.20
2022-10-30T19:03:30.286Z,5.20
2022-10-30T19:05:57.809Z,4.70
2022-10-30T19:08:25.368Z,5.97
2022-10-30T19:10:56.570Z,5.05
2022-10-30T19:13:24.211Z,4.90
2022-10-30T19:15:59.853Z,4.65
2022-10-30T19:18:28.436Z,4.75
2022-10-30T19:21:04.528Z,4.95
2022-10-30T19:23:33.720Z,4.72
2022-10-30T19:26:01.286Z,4.95
2022-10-30T19:28:30.651Z,4.75
2022-10-30T19:30:58.221Z,5.07
2022-10-30T19:33:26.209Z,4.70
2022-10-30T19:35:54.698Z,4.90
2022-10-30T19:38:23.928Z,5.47
2022-10-30T19:40:52.144Z,4.68
2022-10-30T19:43:19.900Z,5.25
2022-10-30T19:45:51.298Z,5.10
2022-10-30T19:48:34.536Z,5.25
2022-10-30T19:51:11.480Z,5.35
2022-10-30T19:53:41.255Z,5.35
2022-10-30T19:56:11.360Z,5.43
2022-10-30T19:58:38.883Z,5.22
2022-10-30T20:01:06.810Z,4.53
2022-10-30T20:03:34.426Z,5.47
2022-10-30T20:06:02.002Z,4.40
2022-10-30T20:08:29.649Z,5.03
2022-10-30T20:10:59.639Z,5.32
2022-10-30T20:13:28.105Z,4.88
2022-10-30T20:15:57.181Z,5.97
2022-10-30T20:18:27.398Z,4.95
2022-10-30T20:20:56.218Z,5.53
2022-10-30T20:23:25.229Z,5.28
2022-10-30T20:25:55.127Z,5.07
2022-10-30T20:28:26.848Z,4.20
2022-10-30T20:30:55.326Z,4.70
2022-10-30T20:33:24.369Z,5.13
2022-10-30T20:35:52.733Z,5.43
2022-10-30T20:38:22.061Z,4.80
2022-10-30T20:40:50.431Z,4.88
2022-10-30T20:43:20.107Z,4.50
2022-10-30T20:45:49.202Z,4.40
2022-10-30T20:48:16.801Z,4.82
2022-10-30T20:50:49.139Z,4.80
2022-10-30T20:53:18.220Z,5.28
2022-10-30T20:55:46.314Z,4.53
2022-10-30T20:58:14.046Z,5.63
2022-10-30T21:00:41.995Z,5.38
2022-10-30T21:03:14.204Z,5.07
2022-10-30T21:05:44.742Z,5.13
2022-10-30T21:08:13.299Z,4.55
2022-10-30T21:10:41.228Z,4.93
2022-10-30T21:13:09.675Z,4.72
2022-10-30T21:15:39.346Z,4.95
2022-10-30T21:18:08.447Z,4.72
2022-10-30T21:20:38.258Z,4.72
2022-10-30T21:23:06.499Z,4.20
2022-10-30T21:25:34.098Z,4.32
2022-10-30T21:28:01.763Z,4.15
2022-10-30T21:30:29.719Z,4.10
2022-10-30T21:32:57.606Z,4.05
2022-10-30T21:35:25.334Z,4.18
2022-10-30T21:37:54.298Z,5.20
2022-10-30T21:40:21.938Z,4.65
2022-10-30T21:42:49.553Z,4.22
2022-10-30T21:45:17.674Z,5.18
2022-10-30T21:47:45.207Z,4.25
2022-10-30T21:50:13.147Z,4.25
2022-10-30T21:52:40.972Z,4.22
2022-10-30T21:55:10.367Z,3.80
2022-10-30T21:57:37.933Z,4.05
2022-10-30T22:00:07.449Z,4.00
2022-10-30T22:02:35.994Z,3.88
2022-10-30T22:05:03.566Z,3.63
2022-10-30T22:07:31.167Z,3.72
2022-10-30T22:09:58.958Z,3.60
2022-10-30T22:12:27.830Z,3.90
2022-10-30T22:14:55.495Z,3.63
2022-10-30T22:17:23.026Z,4.10
2022-10-30T22:19:50.616Z,3.78
2022-10-30T22:22:18.120Z,3.67
2022-10-30T22:24:45.882Z,4.07
2022-10-30T22:27:13.444Z,4.22
2022-10-30T22:29:42.330Z,4.68
2022-10-30T22:32:09.868Z,4.25
2022-10-30T22:34:37.402Z,5.00
2022-10-30T22:37:04.969Z,5.75
2022-10-30T22:39:32.608Z,4.53
2022-10-30T22:42:00.111Z,4.10
2022-10-30T22:44:28.537Z,4.15
2022-10-30T22:46:57.372Z,3.78
2022-10-30T22:49:24.909Z,4.47
2022-10-30T22:51:52.528Z,3.80
2022-10-30T22:54:20.046Z,3.85
2022-10-30T22:56:47.620Z,3.55
2022-10-30T22:59:15.437Z,3.28
2022-10-30T23:01:43.817Z,3.00
2022-10-30T23:04:15.037Z,3.05
2022-10-30T23:06:42.942Z,3.25
2022-10-30T23:09:15.961Z,3.08
2022-10-30T23:11:43.753Z,3.03
2022-10-30T23:14:11.241Z,3.47
2022-10-30T23:16:38.775Z,3.22
2022-10-30T23:19:06.337Z,3.28
2022-10-30T23:21:35.207Z,3.20
2022-10-30T23:24:03.820Z,3.75
2022-10-30T23:26:33.204Z,4.03
2022-10-30T23:29:01.747Z,3.75
2022-10-30T23:31:32.259Z,3.35
2022-10-30T23:34:01.746Z,4.05
2022-10-30T23:36:29.576Z,3.60
2022-10-30T23:39:00.556Z,3.50
2022-10-30T23:41:30.253Z,3.83
2022-10-30T23:43:59.297Z,3.72
2022-10-30T23:46:27.894Z,4.30
2022-10-30T23:48:56.120Z,4.97
2022-10-30T23:51:24.247Z,3.67
2022-10-30T23:53:52.092Z,3.35
2022-10-30T23:56:21.413Z,2.85
2022-10-30T23:58:50.673Z,3.00
